<?xml version="1.0" encoding="UTF-8" standalone="no" ?>
<gpx xmlns="http://www.topografix.com/GPX/1/1" xmlns:xsi="http://www.w3.org/2001/XMLSchema-instance" xsi:schemaLocation="http://www.topografix.com/GPX/1/1 http://www.topografix.com/GPX/1/1/gpx.xsd" version="1.1" creator="VisuGPX - https://www.visugpx.com">
  <metadata>
    <name>Appart\' - Décathlon</name>
    <desc><![CDATA[Dépose du VTT en réparation.]]></desc>
  </metadata>
  <trk>
    <name><![CDATA[Appart\' - Décathlon_1]]></name>
    <trkseg>
      <trkpt lat="45.66771" lon="6.37272">
        <ele>335.1962890625</ele>
        <time>2013-07-15T07:03:05.000Z</time>
      </trkpt>
      <trkpt lat="45.66774" lon="6.37264">
        <ele>335.15344238281</ele>
        <time>2013-07-15T07:03:16.000Z</time>
      </trkpt>
      <trkpt lat="45.66772" lon="6.3726">
        <ele>335.16250610352</ele>
        <time>2013-07-15T07:03:22.000Z</time>
      </trkpt>
      <trkpt lat="45.66768" lon="6.3725">
        <ele>335.21343994141</ele>
        <time>2013-07-15T07:03:25.000Z</time>
      </trkpt>
      <trkpt lat="45.66766" lon="6.37244">
        <ele>335.24096679688</ele>
        <time>2013-07-15T07:03:27.000Z</time>
      </trkpt>
      <trkpt lat="45.66764" lon="6.37236">
        <ele>335.259765625</ele>
        <time>2013-07-15T07:03:29.000Z</time>
      </trkpt>
      <trkpt lat="45.66758" lon="6.37223">
        <ele>335.27386474609</ele>
        <time>2013-07-15T07:03:32.000Z</time>
      </trkpt>
      <trkpt lat="45.66755" lon="6.3721">
        <ele>335.23556518555</ele>
        <time>2013-07-15T07:03:34.000Z</time>
      </trkpt>
      <trkpt lat="45.66749" lon="6.37195">
        <ele>335.09567260742</ele>
        <time>2013-07-15T07:03:37.000Z</time>
      </trkpt>
      <trkpt lat="45.66744" lon="6.37183">
        <ele>334.89440917969</ele>
        <time>2013-07-15T07:03:39.000Z</time>
      </trkpt>
      <trkpt lat="45.66734" lon="6.37163">
        <ele>334.62835693359</ele>
        <time>2013-07-15T07:03:42.000Z</time>
      </trkpt>
      <trkpt lat="45.66729" lon="6.37151">
        <ele>334.35403442383</ele>
        <time>2013-07-15T07:03:44.000Z</time>
      </trkpt>
      <trkpt lat="45.66724" lon="6.37139">
        <ele>334.09008789062</ele>
        <time>2013-07-15T07:03:46.000Z</time>
      </trkpt>
      <trkpt lat="45.66718" lon="6.37124">
        <ele>333.85400390625</ele>
        <time>2013-07-15T07:03:49.000Z</time>
      </trkpt>
      <trkpt lat="45.66716" lon="6.37113">
        <ele>333.65625</ele>
        <time>2013-07-15T07:03:52.000Z</time>
      </trkpt>
      <trkpt lat="45.66715" lon="6.37099">
        <ele>333.5029296875</ele>
        <time>2013-07-15T07:03:55.000Z</time>
      </trkpt>
      <trkpt lat="45.66707" lon="6.37085">
        <ele>333.34558105469</ele>
        <time>2013-07-15T07:03:58.000Z</time>
      </trkpt>
      <trkpt lat="45.66698" lon="6.37085">
        <ele>333.21545410156</ele>
        <time>2013-07-15T07:04:01.000Z</time>
      </trkpt>
      <trkpt lat="45.66691" lon="6.37094">
        <ele>333.14294433594</ele>
        <time>2013-07-15T07:04:03.000Z</time>
      </trkpt>
      <trkpt lat="45.6668" lon="6.37104">
        <ele>333.12231445312</ele>
        <time>2013-07-15T07:04:05.000Z</time>
      </trkpt>
      <trkpt lat="45.66666" lon="6.37113">
        <ele>333.15878295898</ele>
        <time>2013-07-15T07:04:07.000Z</time>
      </trkpt>
      <trkpt lat="45.66646" lon="6.37124">
        <ele>333.35269165039</ele>
        <time>2013-07-15T07:04:10.000Z</time>
      </trkpt>
      <trkpt lat="45.66632" lon="6.37131">
        <ele>333.61737060547</ele>
        <time>2013-07-15T07:04:12.000Z</time>
      </trkpt>
      <trkpt lat="45.66611" lon="6.3714">
        <ele>333.94662475586</ele>
        <time>2013-07-15T07:04:15.000Z</time>
      </trkpt>
      <trkpt lat="45.66599" lon="6.37144">
        <ele>334.29180908203</ele>
        <time>2013-07-15T07:04:17.000Z</time>
      </trkpt>
      <trkpt lat="45.66588" lon="6.37148">
        <ele>334.64657592773</ele>
        <time>2013-07-15T07:04:19.000Z</time>
      </trkpt>
      <trkpt lat="45.66575" lon="6.37151">
        <ele>334.89270019531</ele>
        <time>2013-07-15T07:04:21.000Z</time>
      </trkpt>
      <trkpt lat="45.66563" lon="6.37155">
        <ele>335.06741333008</ele>
        <time>2013-07-15T07:04:23.000Z</time>
      </trkpt>
      <trkpt lat="45.66543" lon="6.37159">
        <ele>335.14862060547</ele>
        <time>2013-07-15T07:04:26.000Z</time>
      </trkpt>
      <trkpt lat="45.66531" lon="6.37162">
        <ele>335.17700195312</ele>
        <time>2013-07-15T07:04:28.000Z</time>
      </trkpt>
      <trkpt lat="45.66513" lon="6.37168">
        <ele>335.14135742188</ele>
        <time>2013-07-15T07:04:31.000Z</time>
      </trkpt>
      <trkpt lat="45.66497" lon="6.37172">
        <ele>335.05163574219</ele>
        <time>2013-07-15T07:04:34.000Z</time>
      </trkpt>
      <trkpt lat="45.6648" lon="6.37178">
        <ele>334.87796020508</ele>
        <time>2013-07-15T07:04:37.000Z</time>
      </trkpt>
      <trkpt lat="45.66461" lon="6.37185">
        <ele>334.61859130859</ele>
        <time>2013-07-15T07:04:40.000Z</time>
      </trkpt>
      <trkpt lat="45.66449" lon="6.37189">
        <ele>334.30868530273</ele>
        <time>2013-07-15T07:04:42.000Z</time>
      </trkpt>
      <trkpt lat="45.66438" lon="6.37194">
        <ele>333.96557617188</ele>
        <time>2013-07-15T07:04:44.000Z</time>
      </trkpt>
      <trkpt lat="45.66417" lon="6.37203">
        <ele>333.55059814453</ele>
        <time>2013-07-15T07:04:47.000Z</time>
      </trkpt>
      <trkpt lat="45.66404" lon="6.37208">
        <ele>333.21124267578</ele>
        <time>2013-07-15T07:04:49.000Z</time>
      </trkpt>
      <trkpt lat="45.66385" lon="6.37217">
        <ele>332.98062133789</ele>
        <time>2013-07-15T07:04:52.000Z</time>
      </trkpt>
      <trkpt lat="45.66373" lon="6.37223">
        <ele>332.84072875977</ele>
        <time>2013-07-15T07:04:54.000Z</time>
      </trkpt>
      <trkpt lat="45.66354" lon="6.37229">
        <ele>332.83959960938</ele>
        <time>2013-07-15T07:04:57.000Z</time>
      </trkpt>
      <trkpt lat="45.66336" lon="6.37235">
        <ele>333.04846191406</ele>
        <time>2013-07-15T07:05:00.000Z</time>
      </trkpt>
      <trkpt lat="45.66325" lon="6.37239">
        <ele>333.25210571289</ele>
        <time>2013-07-15T07:05:02.000Z</time>
      </trkpt>
      <trkpt lat="45.66313" lon="6.37244">
        <ele>333.39663696289</ele>
        <time>2013-07-15T07:05:04.000Z</time>
      </trkpt>
      <trkpt lat="45.66302" lon="6.37249">
        <ele>333.46890258789</ele>
        <time>2013-07-15T07:05:06.000Z</time>
      </trkpt>
      <trkpt lat="45.66286" lon="6.37257">
        <ele>333.43017578125</ele>
        <time>2013-07-15T07:05:09.000Z</time>
      </trkpt>
      <trkpt lat="45.66275" lon="6.37262">
        <ele>333.25598144531</ele>
        <time>2013-07-15T07:05:11.000Z</time>
      </trkpt>
      <trkpt lat="45.66266" lon="6.37265">
        <ele>333.05917358398</ele>
        <time>2013-07-15T07:05:13.000Z</time>
      </trkpt>
      <trkpt lat="45.66253" lon="6.3727">
        <ele>332.83477783203</ele>
        <time>2013-07-15T07:05:16.000Z</time>
      </trkpt>
      <trkpt lat="45.66243" lon="6.37267">
        <ele>332.62249755859</ele>
        <time>2013-07-15T07:05:18.000Z</time>
      </trkpt>
      <trkpt lat="45.66232" lon="6.37262">
        <ele>332.42782592773</ele>
        <time>2013-07-15T07:05:20.000Z</time>
      </trkpt>
      <trkpt lat="45.66219" lon="6.37244">
        <ele>332.25335693359</ele>
        <time>2013-07-15T07:05:23.000Z</time>
      </trkpt>
      <trkpt lat="45.66209" lon="6.37224">
        <ele>332.11636352539</ele>
        <time>2013-07-15T07:05:26.000Z</time>
      </trkpt>
      <trkpt lat="45.66197" lon="6.37202">
        <ele>332.05096435547</ele>
        <time>2013-07-15T07:05:29.000Z</time>
      </trkpt>
      <trkpt lat="45.66185" lon="6.3718">
        <ele>332.01666259766</ele>
        <time>2013-07-15T07:05:32.000Z</time>
      </trkpt>
      <trkpt lat="45.66172" lon="6.37159">
        <ele>332</ele>
        <time>2013-07-15T07:05:35.000Z</time>
      </trkpt>
      <trkpt lat="45.66163" lon="6.37145">
        <ele>331.98397827148</ele>
        <time>2013-07-15T07:05:37.000Z</time>
      </trkpt>
      <trkpt lat="45.66154" lon="6.3713">
        <ele>331.92498779297</ele>
        <time>2013-07-15T07:05:39.000Z</time>
      </trkpt>
      <trkpt lat="45.66145" lon="6.37116">
        <ele>331.82305908203</ele>
        <time>2013-07-15T07:05:41.000Z</time>
      </trkpt>
      <trkpt lat="45.66133" lon="6.37095">
        <ele>331.66055297852</ele>
        <time>2013-07-15T07:05:44.000Z</time>
      </trkpt>
      <trkpt lat="45.66125" lon="6.37082">
        <ele>331.45895385742</ele>
        <time>2013-07-15T07:05:46.000Z</time>
      </trkpt>
      <trkpt lat="45.66113" lon="6.37063">
        <ele>331.20498657227</ele>
        <time>2013-07-15T07:05:49.000Z</time>
      </trkpt>
      <trkpt lat="45.66105" lon="6.37049">
        <ele>330.92684936523</ele>
        <time>2013-07-15T07:05:51.000Z</time>
      </trkpt>
      <trkpt lat="45.66098" lon="6.37036">
        <ele>330.62457275391</ele>
        <time>2013-07-15T07:05:53.000Z</time>
      </trkpt>
      <trkpt lat="45.6609" lon="6.37022">
        <ele>330.29669189453</ele>
        <time>2013-07-15T07:05:55.000Z</time>
      </trkpt>
      <trkpt lat="45.66079" lon="6.37001">
        <ele>329.91107177734</ele>
        <time>2013-07-15T07:05:58.000Z</time>
      </trkpt>
      <trkpt lat="45.66071" lon="6.36988">
        <ele>329.66925048828</ele>
        <time>2013-07-15T07:06:00.000Z</time>
      </trkpt>
      <trkpt lat="45.6606" lon="6.36966">
        <ele>329.62661743164</ele>
        <time>2013-07-15T07:06:03.000Z</time>
      </trkpt>
      <trkpt lat="45.6605" lon="6.36943">
        <ele>329.78277587891</ele>
        <time>2013-07-15T07:06:06.000Z</time>
      </trkpt>
      <trkpt lat="45.6604" lon="6.36924">
        <ele>330.14505004883</ele>
        <time>2013-07-15T07:06:09.000Z</time>
      </trkpt>
      <trkpt lat="45.66029" lon="6.36903">
        <ele>330.71606445312</ele>
        <time>2013-07-15T07:06:12.000Z</time>
      </trkpt>
      <trkpt lat="45.66023" lon="6.36889">
        <ele>331.28884887695</ele>
        <time>2013-07-15T07:06:14.000Z</time>
      </trkpt>
      <trkpt lat="45.66017" lon="6.36875">
        <ele>331.80621337891</ele>
        <time>2013-07-15T07:06:16.000Z</time>
      </trkpt>
      <trkpt lat="45.66008" lon="6.36858">
        <ele>332.30032348633</ele>
        <time>2013-07-15T07:06:19.000Z</time>
      </trkpt>
      <trkpt lat="45.66003" lon="6.36848">
        <ele>332.74407958984</ele>
        <time>2013-07-15T07:06:21.000Z</time>
      </trkpt>
      <trkpt lat="45.65998" lon="6.36833">
        <ele>333.15313720703</ele>
        <time>2013-07-15T07:06:24.000Z</time>
      </trkpt>
      <trkpt lat="45.65997" lon="6.36825">
        <ele>333.45718383789</ele>
        <time>2013-07-15T07:06:26.000Z</time>
      </trkpt>
      <trkpt lat="45.6599" lon="6.3681">
        <ele>333.63046264648</ele>
        <time>2013-07-15T07:06:29.000Z</time>
      </trkpt>
      <trkpt lat="45.65984" lon="6.36809">
        <ele>333.67010498047</ele>
        <time>2013-07-15T07:06:31.000Z</time>
      </trkpt>
      <trkpt lat="45.65977" lon="6.36815">
        <ele>333.62435913086</ele>
        <time>2013-07-15T07:06:33.000Z</time>
      </trkpt>
      <trkpt lat="45.65963" lon="6.36831">
        <ele>333.45379638672</ele>
        <time>2013-07-15T07:06:36.000Z</time>
      </trkpt>
      <trkpt lat="45.65947" lon="6.36839">
        <ele>333.22583007812</ele>
        <time>2013-07-15T07:06:39.000Z</time>
      </trkpt>
      <trkpt lat="45.65936" lon="6.36844">
        <ele>332.99481201172</ele>
        <time>2013-07-15T07:06:41.000Z</time>
      </trkpt>
      <trkpt lat="45.65923" lon="6.3685">
        <ele>332.73452758789</ele>
        <time>2013-07-15T07:06:43.000Z</time>
      </trkpt>
      <trkpt lat="45.65906" lon="6.36857">
        <ele>332.40478515625</ele>
        <time>2013-07-15T07:06:46.000Z</time>
      </trkpt>
      <trkpt lat="45.65895" lon="6.36861">
        <ele>332.06015014648</ele>
        <time>2013-07-15T07:06:48.000Z</time>
      </trkpt>
      <trkpt lat="45.65878" lon="6.36869">
        <ele>331.69869995117</ele>
        <time>2013-07-15T07:06:51.000Z</time>
      </trkpt>
      <trkpt lat="45.65868" lon="6.36873">
        <ele>331.32904052734</ele>
        <time>2013-07-15T07:06:53.000Z</time>
      </trkpt>
      <trkpt lat="45.65852" lon="6.36879">
        <ele>330.91128540039</ele>
        <time>2013-07-15T07:06:56.000Z</time>
      </trkpt>
      <trkpt lat="45.65837" lon="6.36883">
        <ele>330.47116088867</ele>
        <time>2013-07-15T07:06:59.000Z</time>
      </trkpt>
      <trkpt lat="45.65821" lon="6.36889">
        <ele>330.03121948242</ele>
        <time>2013-07-15T07:07:02.000Z</time>
      </trkpt>
      <trkpt lat="45.6581" lon="6.36893">
        <ele>329.65582275391</ele>
        <time>2013-07-15T07:07:04.000Z</time>
      </trkpt>
      <trkpt lat="45.65798" lon="6.36898">
        <ele>329.30569458008</ele>
        <time>2013-07-15T07:07:06.000Z</time>
      </trkpt>
      <trkpt lat="45.65782" lon="6.36905">
        <ele>329.00128173828</ele>
        <time>2013-07-15T07:07:09.000Z</time>
      </trkpt>
      <trkpt lat="45.6577" lon="6.36918">
        <ele>328.75653076172</ele>
        <time>2013-07-15T07:07:12.000Z</time>
      </trkpt>
      <trkpt lat="45.65765" lon="6.36929">
        <ele>328.60562133789</ele>
        <time>2013-07-15T07:07:14.000Z</time>
      </trkpt>
      <trkpt lat="45.65758" lon="6.36936">
        <ele>328.51391601562</ele>
        <time>2013-07-15T07:07:16.000Z</time>
      </trkpt>
      <trkpt lat="45.65745" lon="6.36938">
        <ele>328.4775390625</ele>
        <time>2013-07-15T07:07:19.000Z</time>
      </trkpt>
      <trkpt lat="45.65736" lon="6.36938">
        <ele>328.52911376953</ele>
        <time>2013-07-15T07:07:21.000Z</time>
      </trkpt>
      <trkpt lat="45.65726" lon="6.36938">
        <ele>328.66314697266</ele>
        <time>2013-07-15T07:07:23.000Z</time>
      </trkpt>
      <trkpt lat="45.65716" lon="6.36939">
        <ele>328.80459594727</ele>
        <time>2013-07-15T07:07:25.000Z</time>
      </trkpt>
      <trkpt lat="45.65705" lon="6.36941">
        <ele>328.96469116211</ele>
        <time>2013-07-15T07:07:27.000Z</time>
      </trkpt>
      <trkpt lat="45.65691" lon="6.36943">
        <ele>329.16220092773</ele>
        <time>2013-07-15T07:07:30.000Z</time>
      </trkpt>
      <trkpt lat="45.65681" lon="6.36945">
        <ele>329.36163330078</ele>
        <time>2013-07-15T07:07:32.000Z</time>
      </trkpt>
      <trkpt lat="45.65666" lon="6.36952">
        <ele>329.57110595703</ele>
        <time>2013-07-15T07:07:35.000Z</time>
      </trkpt>
      <trkpt lat="45.65656" lon="6.36958">
        <ele>329.73016357422</ele>
        <time>2013-07-15T07:07:37.000Z</time>
      </trkpt>
      <trkpt lat="45.65644" lon="6.36955">
        <ele>329.83642578125</ele>
        <time>2013-07-15T07:07:40.000Z</time>
      </trkpt>
      <trkpt lat="45.65638" lon="6.36948">
        <ele>329.88934326172</ele>
        <time>2013-07-15T07:07:42.000Z</time>
      </trkpt>
      <trkpt lat="45.65631" lon="6.36938">
        <ele>329.91339111328</ele>
        <time>2013-07-15T07:07:45.000Z</time>
      </trkpt>
      <trkpt lat="45.65627" lon="6.3693">
        <ele>329.89947509766</ele>
        <time>2013-07-15T07:07:47.000Z</time>
      </trkpt>
      <trkpt lat="45.65626" lon="6.36922">
        <ele>329.90591430664</ele>
        <time>2013-07-15T07:07:50.000Z</time>
      </trkpt>
      <trkpt lat="45.65625" lon="6.36919">
        <ele>329.92803955078</ele>
        <time>2013-07-15T07:07:52.000Z</time>
      </trkpt>
      <trkpt lat="45.65625" lon="6.36915">
        <ele>329.9521484375</ele>
        <time>2013-07-15T07:07:55.000Z</time>
      </trkpt>
      <trkpt lat="45.65625" lon="6.36915">
        <ele>329.9521484375</ele>
        <time>2013-07-15T07:08:05.000Z</time>
      </trkpt>
      <trkpt lat="45.65625" lon="6.36915">
        <ele>329.9521484375</ele>
        <time>2013-07-15T07:08:11.000Z</time>
      </trkpt>
    </trkseg>
  </trk>
</gpx>